Time;durP1;ratioP1;P1;durP2;ratioP2;P2;SDS_P1;SDS_P2;PMS_P1;PMS_P2;Temp;Humidity;BMP_temperature;BMP_pressure;BME280_temperature;BME280_humidity;BME280_pressure;Samples;Min_cycle;Max_cycle;Signal;HPM_P1;HPM_P2
2022/02/05 00:04:07;;;;;;;110.03;31.87;;;;;;;-5.69;73.67;99459.22;1730171;83;21006;-74
2022/02/05 00:06:35;;;;;;;79.40;23.40;;;;;;;-5.67;73.70;99449.09;1729380;83;20994;-73
2022/02/05 00:20:27;;;;;;;45.73;18.57;;;;;;;-5.52;73.42;99431.86;1730412;83;20900;-72
2022/02/05 00:41:46;;;;;;;37.53;16.57;;;;;;;-5.39;73.32;99414.86;1746526;82;20996;-73
2022/02/05 00:44:05;;;;;;;40.67;17.12;;;;;;;-5.38;73.37;99414.63;1745140;81;21200;-73
2022/02/05 00:46:38;;;;;;;35.60;16.55;;;;;;;-5.38;73.29;99411.12;1746239;81;20937;-73
2022/02/05 00:49:06;;;;;;;43.42;18.35;;;;;;;-5.35;73.23;99404.47;1728176;82;21008;-73
2022/02/05 00:51:39;;;;;;;38.88;17.45;;;;;;;-5.33;73.11;99409.11;1746238;82;20972;-72
2022/02/05 00:54:12;;;;;;;40.70;18.02;;;;;;;-5.32;73.15;99408.89;1745724;81;21473;-74
2022/02/05 00:59:16;;;;;;;49.40;19.57;;;;;;;-5.26;73.20;99400.49;1746282;82;21001;-73
2022/02/05 01:01:49;;;;;;;46.02;20.05;;;;;;;-5.24;73.12;99398.42;1726770;82;20992;-73
2022/02/05 01:04:18;;;;;;;41.28;18.45;;;;;;;-5.25;73.08;99385.49;1746361;82;20996;-72
2022/02/05 01:06:45;;;;;;;40.45;18.32;;;;;;;-5.22;73.12;99390.13;1703668;82;20941;-73
2022/02/05 01:09:21;;;;;;;40.00;16.90;;;;;;;-5.19;73.12;99387.00;1746258;81;21410;-72
2022/02/05 01:11:44;;;;;;;34.75;16.20;;;;;;;-5.15;73.17;99387.69;1745090;81;20933;-73
2022/02/05 01:14:15;;;;;;;43.17;17.40;;;;;;;-5.11;73.12;99385.38;1746661;82;20885;-73
2022/02/05 01:16:59;;;;;;;43.80;18.30;;;;;;;-5.08;73.00;99390.86;1746239;82;20953;-73
2022/02/05 01:22:15;;;;;;;38.10;18.35;;;;;;;-5.10;72.68;99383.53;1746399;82;20877;-73
2022/02/05 01:24:46;;;;;;;43.83;19.12;;;;;;;-5.14;72.60;99377.25;1746190;82;20991;-73
2022/02/05 01:27:17;;;;;;;50.67;19.60;;;;;;;-5.12;72.78;99381.06;1746685;82;20909;-73
2022/02/05 01:30:15;;;;;;;40.20;18.52;;;;;;;-5.10;72.82;99380.30;1745834;81;20937;-73
2022/02/05 01:32:24;;;;;;;47.40;19.80;;;;;;;-5.10;72.69;99384.33;1742247;82;20977;-75
2022/02/05 01:35:00;;;;;;;39.92;19.25;;;;;;;-5.09;72.66;99379.79;1745931;81;21541;-74
2022/02/05 01:51:59;;;;;;;39.33;18.52;;;;;;;-5.02;72.67;99370.64;1746523;82;20944;-72
2022/02/05 02:12:12;;;;;;;53.08;22.60;;;;;;;-4.98;72.43;99364.81;1767223;81;20989;-73
2022/02/05 02:22:27;;;;;;;58.92;26.12;;;;;;;-5.05;72.50;99366.22;1766908;81;21490;-73
2022/02/05 02:25:01;;;;;;;54.80;24.35;;;;;;;-5.05;72.63;99364.88;1765228;81;21360;-73
2022/02/05 02:27:28;;;;;;;62.10;27.25;;;;;;;-5.03;72.75;99368.14;1762949;81;21494;-71
2022/02/05 02:29:59;;;;;;;63.78;25.95;;;;;;;-4.99;72.71;99369.88;1763301;81;21056;-72
2022/02/05 02:32:14;;;;;;;63.40;26.75;;;;;;;-4.99;72.68;99372.56;1750495;80;20831;-74
2022/02/05 02:34:46;;;;;;;53.17;24.45;;;;;;;-4.98;72.82;99366.97;1751873;81;20995;-74
2022/02/05 02:37:12;;;;;;;66.67;26.82;;;;;;;-4.98;72.67;99366.97;1751234;82;20972;-73
2022/02/05 02:42:22;;;;;;;65.72;26.65;;;;;;;-5.01;72.78;99366.90;1751906;82;20986;-73
2022/02/05 02:44:52;;;;;;;66.12;27.00;;;;;;;-5.06;72.57;99366.73;1752073;82;21430;-73
2022/02/05 02:47:19;;;;;;;64.32;27.40;;;;;;;-5.10;72.69;99355.31;1752225;82;21508;-73
2022/02/05 02:57:53;;;;;;;64.25;26.77;;;;;;;-5.19;73.08;99342.66;1752125;82;20948;-69
2022/02/05 03:00:19;;;;;;;67.90;28.32;;;;;;;-5.25;73.02;99333.61;1751142;82;20987;-72
2022/02/05 03:02:46;;;;;;;58.95;25.57;;;;;;;-5.25;73.31;99326.89;1752215;82;21027;-73
2022/02/05 03:05:17;;;;;;;60.70;27.50;;;;;;;-5.25;73.25;99325.55;1751746;82;21216;-72
2022/02/05 03:07:44;;;;;;;61.20;26.10;;;;;;;-5.24;73.34;99323.18;1752275;82;21448;-73
2022/02/05 03:10:11;;;;;;;67.27;25.15;;;;;;;-5.21;73.44;99325.42;1751754;82;20916;-72
2022/02/05 03:12:42;;;;;;;54.93;24.77;;;;;;;-5.18;73.40;99324.98;1726557;82;20877;-72
2022/02/05 03:15:12;;;;;;;58.55;27.15;;;;;;;-5.18;73.52;99322.29;1751825;82;20988;-73
2022/02/05 03:18:02;;;;;;;;;;;;;;;-5.19;73.31;99319.83;1754759;82;21440;-72
2022/02/05 03:20:22;;;;;;;48.65;21.70;;;;;;;-5.18;73.47;99316.91;1750582;82;20097;-73
2022/02/05 03:22:48;;;;;;;53.25;24.10;;;;;;;-5.16;73.63;99312.15;1752127;82;21031;-73
2022/02/05 03:25:15;;;;;;;59.88;24.57;;;;;;;-5.14;73.72;99315.45;1726691;82;20972;-73
2022/02/05 03:27:43;;;;;;;62.60;25.70;;;;;;;-5.11;73.89;99315.51;1751902;82;20963;-73
2022/02/05 03:30:10;;;;;;;57.62;24.27;;;;;;;-5.08;74.04;99312.38;1752006;82;20959;-73
2022/02/05 03:32:40;;;;;;;55.30;24.37;;;;;;;-5.04;74.03;99308.21;1752037;80;21504;-73
2022/02/05 03:35:09;;;;;;;59.65;24.02;;;;;;;-4.82;73.44;99312.33;1751842;82;20932;-72
2022/02/05 03:37:37;;;;;;;61.42;26.00;;;;;;;-4.80;73.34;99307.04;1752084;81;20981;-73
2022/02/05 03:40:05;;;;;;;51.00;23.05;;;;;;;-4.79;73.23;99304.64;1752037;82;20959;-75
2022/02/05 03:42:34;;;;;;;54.93;24.63;;;;;;;-4.81;73.27;99313.45;1726239;82;22119;-73
2022/02/05 03:45:01;;;;;;;48.48;23.15;;;;;;;-4.79;73.45;99311.88;1751644;82;20984;-72
2022/02/05 03:47:33;;;;;;;51.33;22.70;;;;;;;-4.76;73.47;99308.77;1726827;82;20976;-73
2022/02/05 03:50:01;;;;;;;54.70;24.25;;;;;;;-4.70;73.45;99319.95;1752194;82;20932;-72
2022/02/05 03:52:30;;;;;;;53.33;23.83;;;;;;;-4.68;73.52;99313.84;1751768;82;20928;-72
2022/02/05 03:54:56;;;;;;;60.55;25.05;;;;;;;-4.63;73.48;99314.50;1751972;82;20991;-72
2022/02/05 03:57:24;;;;;;;46.42;21.75;;;;;;;-4.62;73.42;99308.61;1752052;82;20925;-72
2022/02/05 03:59:51;;;;;;;53.52;24.23;;;;;;;-4.60;73.57;99301.12;1751862;81;21421;-71
2022/02/05 04:02:19;;;;;;;43.80;21.37;;;;;;;-4.61;73.47;99303.52;1751793;82;20979;-72
2022/02/05 04:04:51;;;;;;;58.02;23.57;;;;;;;-4.61;73.62;99305.70;1751938;82;20904;-72
2022/02/05 04:07:25;;;;;;;41.48;21.65;;;;;;;-4.58;73.72;99303.06;1752270;82;21098;-71
2022/02/05 04:09:59;;;;;;;44.20;21.42;;;;;;;-4.56;73.66;99301.81;1752201;81;20956;-72
2022/02/05 04:17:55;;;;;;;49.55;22.42;;;;;;;-4.53;73.88;99281.69;1752288;82;20868;-74
2022/02/05 04:20:22;;;;;;;44.38;20.05;;;;;;;-4.54;74.05;99267.41;1751690;82;21143;-72
2022/02/05 04:22:49;;;;;;;41.65;19.50;;;;;;;-4.52;74.12;99276.63;1751967;82;20960;-72
2022/02/05 04:25:20;;;;;;;50.83;22.67;;;;;;;-4.50;74.35;99274.52;1751715;82;20908;-72
2022/02/05 04:27:47;;;;;;;51.53;21.37;;;;;;;-4.52;74.48;99273.94;1751787;82;20888;-72
2022/02/05 04:30:13;;;;;;;50.25;23.07;;;;;;;-4.52;74.55;99280.66;1752005;82;20908;-73
2022/02/05 04:32:39;;;;;;;43.68;20.25;;;;;;;-4.51;74.64;99278.27;1751778;80;21014;-71
2022/02/05 04:35:08;;;;;;;52.05;22.62;;;;;;;-4.48;74.72;99268.90;1751698;82;20928;-73
2022/02/05 04:37:35;;;;;;;41.63;20.75;;;;;;;-4.46;74.67;99269.50;1726314;82;20891;-73
2022/02/05 04:40:24;;;;;;;46.83;22.87;;;;;;;-4.47;74.76;99265.98;1751907;82;20960;-73
2022/02/05 04:43:07;;;;;;;;;;;;;;;;;;;;;
2022/02/05 04:58:52;;;;;;;46.40;20.97;;;;;;;-4.46;75.37;99278.92;1751697;82;21480;-72
2022/02/05 05:09:24;;;;;;;43.42;20.43;;;;;;;-4.35;75.35;99275.45;1732687;82;21012;-73
2022/02/05 05:12:05;;;;;;;36.68;17.73;;;;;;;-4.32;75.42;99282.27;1748022;82;21203;-71
2022/02/05 05:19:29;;;;;;;39.55;19.57;;;;;;;-4.26;75.43;99265.75;1751992;82;20987;-71
2022/02/05 05:21:56;;;;;;;45.08;18.50;;;;;;;-4.28;75.41;99265.95;1751838;80;21462;-72
2022/02/05 05:24:25;;;;;;;43.13;19.05;;;;;;;-4.30;75.46;99257.30;1751944;82;21126;-70
2022/02/05 05:26:54;;;;;;;41.70;18.30;;;;;;;-4.29;75.59;99264.31;1751983;82;20899;-72
2022/02/05 05:29:25;;;;;;;45.75;18.67;;;;;;;-4.28;75.76;99265.95;1752109;81;20836;-71
2022/02/05 05:31:53;;;;;;;37.55;17.90;;;;;;;-4.26;75.75;99277.86;1755952;80;20885;-72
2022/02/05 05:34:21;;;;;;;32.67;16.02;;;;;;;-4.24;76.01;99282.46;1766954;80;20993;-72
2022/02/05 05:36:48;;;;;;;38.70;16.87;;;;;;;-4.20;76.06;99284.49;1767022;80;21113;-73
2022/02/05 05:39:19;;;;;;;32.30;15.48;;;;;;;-4.15;75.97;99278.42;1766475;81;20921;-72
2022/02/05 05:41:48;;;;;;;35.40;15.00;;;;;;;-4.11;76.06;99268.82;1766962;81;20941;-73
2022/02/05 05:50:05;;;;;;;33.58;16.17;;;;;;;-4.04;76.26;99278.97;1682111;83;21062;-72
2022/02/05 05:52:07;;;;;;;39.53;16.12;;;;;;;-4.05;76.41;99275.17;1752306;81;21028;-72
2022/02/05 05:54:34;;;;;;;44.88;18.05;;;;;;;-4.03;76.51;99270.38;1766943;80;20997;-72
2022/02/05 05:57:01;;;;;;;38.63;16.75;;;;;;;-3.99;76.55;99266.71;1722410;81;20969;-72
2022/02/05 05:59:27;;;;;;;38.10;16.55;;;;;;;-3.99;76.66;99263.47;1697996;81;21470;-72
2022/02/05 06:01:54;;;;;;;37.33;17.60;;;;;;;-3.96;76.77;99251.44;1767165;80;21079;-73
2022/02/05 06:04:25;;;;;;;41.20;18.57;;;;;;;-3.91;76.89;99255.06;1766694;81;20974;-73
2022/02/05 06:06:55;;;;;;;26.95;14.30;;;;;;;-3.88;76.84;99245.72;1766874;81;20913;-72
2022/02/05 06:09:21;;;;;;;28.85;14.90;;;;;;;-3.84;77.00;99247.42;1767100;80;20953;-72
2022/02/05 06:11:49;;;;;;;28.47;15.13;;;;;;;-3.79;77.05;99244.86;1767087;80;20894;-73
2022/02/05 06:14:20;;;;;;;29.30;14.70;;;;;;;-3.73;77.08;99248.48;1767346;80;21642;-73
2022/02/05 06:16:48;;;;;;;32.00;15.15;;;;;;;-3.70;77.04;99250.19;1766412;80;20937;-73
2022/02/05 06:19:14;;;;;;;31.05;15.38;;;;;;;-3.69;77.06;99257.75;1767003;80;20938;-73
2022/02/05 06:21:41;;;;;;;31.77;15.28;;;;;;;-3.67;77.06;99247.57;1767086;80;20893;-73
2022/02/05 06:24:08;;;;;;;32.75;15.70;;;;;;;-3.63;77.16;99251.42;1767077;81;20990;-72
2022/02/05 06:26:38;;;;;;;29.92;14.53;;;;;;;-3.59;77.17;99251.27;1767472;80;21054;-73
2022/02/05 06:29:09;;;;;;;35.88;16.73;;;;;;;-3.56;77.19;99244.58;1766187;80;20972;-72
2022/02/05 06:31:39;;;;;;;31.12;15.18;;;;;;;-3.55;77.10;99244.34;1766915;81;20922;-72
2022/02/05 06:34:08;;;;;;;38.88;16.45;;;;;;;-3.54;77.17;99243.83;1765158;81;21458;-72
2022/02/05 06:36:37;;;;;;;31.23;14.83;;;;;;;-3.52;77.20;99241.73;1764648;81;20999;-71
2022/02/05 06:39:04;;;;;;;36.95;15.18;;;;;;;-3.48;77.33;99241.53;1767053;80;21052;-73
2022/02/05 06:41:36;;;;;;;33.13;15.35;;;;;;;-3.47;77.34;99239.16;1766884;80;20941;-73
2022/02/05 06:44:11;;;;;;;27.52;14.60;;;;;;;-3.47;77.29;99236.45;1767047;81;20921;-73
2022/02/05 06:46:39;;;;;;;31.65;15.55;;;;;;;-3.40;77.46;99236.34;1767041;80;21453;-72
2022/02/05 06:49:06;;;;;;;30.65;12.85;;;;;;;-3.32;77.46;99235.98;1767095;81;20938;-73
2022/02/05 06:51:35;;;;;;;29.27;13.72;;;;;;;-3.24;77.31;99230.75;1766953;81;21581;-72
2022/02/05 06:54:03;;;;;;;27.25;14.13;;;;;;;-3.24;77.29;99237.49;1720055;81;20893;-72
2022/02/05 06:56:29;;;;;;;23.40;13.18;;;;;;;-3.21;77.43;99230.28;1767010;80;20990;-71
2022/02/05 06:58:56;;;;;;;24.85;11.90;;;;;;;-3.19;77.53;99234.11;1767272;80;20941;-72
2022/02/05 07:01:22;;;;;;;25.32;12.73;;;;;;;-3.19;77.63;99233.56;1767236;80;20878;-72
2022/02/05 07:03:50;;;;;;;27.90;14.58;;;;;;;-3.17;77.79;99241.41;1766987;81;21484;-72
2022/02/05 07:06:17;;;;;;;32.50;16.15;;;;;;;-3.15;77.82;99231.73;1767368;80;21030;-74
2022/02/05 07:08:49;;;;;;;27.13;13.28;;;;;;;-3.12;78.04;99226.70;1766338;81;20976;-72
2022/02/05 07:11:21;;;;;;;28.80;13.38;;;;;;;-3.07;78.23;99226.02;1766865;80;21003;-73
2022/02/05 07:13:53;;;;;;;28.32;14.10;;;;;;;-3.03;78.41;99220.42;1766952;80;20993;-72
2022/02/05 07:16:29;;;;;;;24.85;13.18;;;;;;;-3.00;78.52;99229.38;1767023;81;21985;-68
2022/02/05 07:21:49;;;;;;;23.30;13.00;;;;;;;-2.91;78.84;99224.97;1728741;81;20974;-73
2022/02/05 07:24:28;;;;;;;23.42;12.75;;;;;;;-2.89;78.90;99220.16;1766217;80;20966;-73
2022/02/05 07:29:36;;;;;;;23.73;12.65;;;;;;;-2.86;79.39;99212.42;1767300;81;21822;-73
2022/02/05 07:32:02;;;;;;;24.47;12.65;;;;;;;-2.87;79.56;99204.56;1766685;80;20977;-73
2022/02/05 07:34:32;;;;;;;26.93;13.65;;;;;;;-2.87;80.04;99200.00;1721565;81;21017;-73
2022/02/05 07:37:01;;;;;;;29.12;13.08;;;;;;;-2.90;80.13;99199.66;1766863;81;20968;-73
2022/02/05 07:39:34;;;;;;;30.70;15.30;;;;;;;-2.86;80.46;99196.75;1722152;81;20993;-73
2022/02/05 07:42:03;;;;;;;27.82;14.63;;;;;;;-2.80;80.62;99186.37;1766870;81;21794;-73
2022/02/05 07:44:36;;;;;;;24.37;14.05;;;;;;;-2.74;80.75;99199.41;1766753;80;20906;-74
2022/02/05 07:47:03;;;;;;;31.42;15.75;;;;;;;-2.74;80.68;99189.45;1767026;81;20977;-73
2022/02/05 07:49:38;;;;;;;28.55;15.40;;;;;;;-2.67;80.80;99177.69;1766787;80;21045;-73
2022/02/05 07:52:04;;;;;;;24.60;14.30;;;;;;;-2.62;80.95;99173.75;1765379;81;20925;-74
2022/02/05 07:54:35;;;;;;;26.85;15.10;;;;;;;-2.57;81.25;99163.05;1766845;81;21076;-73
2022/02/05 07:57:05;;;;;;;27.20;13.83;;;;;;;-2.59;81.41;99161.11;1766864;80;20918;-74
2022/02/05 07:59:35;;;;;;;28.20;13.22;;;;;;;-2.54;81.41;99161.77;1724275;81;20882;-71
2022/02/05 08:02:05;;;;;;;27.93;14.23;;;;;;;-2.57;81.56;99153.08;1767093;80;21538;-73
2022/02/05 08:04:33;;;;;;;28.20;13.70;;;;;;;-2.53;81.56;99156.13;1766876;80;20929;-73
2022/02/05 08:07:01;;;;;;;28.27;14.28;;;;;;;-2.50;81.63;99152.94;1766782;81;21543;-74
2022/02/05 08:12:20;;;;;;;27.70;14.73;;;;;;;-2.52;81.87;99143.42;1767107;81;21013;-73
2022/02/05 08:14:51;;;;;;;32.75;15.95;;;;;;;-2.47;81.82;99144.87;1722128;81;20973;-75
2022/02/05 08:17:29;;;;;;;31.27;16.20;;;;;;;-2.50;83.54;99144.84;1766944;80;20906;-72
2022/02/05 08:19:54;;;;;;;25.30;14.13;;;;;;;-2.43;83.33;99136.59;1766621;80;21721;-72
2022/02/05 08:22:22;;;;;;;32.42;16.77;;;;;;;-2.43;82.74;99134.41;1766648;80;20946;-72
2022/02/05 08:24:52;;;;;;;36.28;17.70;;;;;;;-2.41;82.45;99129.59;1766759;80;20974;-73
2022/02/05 08:27:21;;;;;;;34.03;16.82;;;;;;;-2.42;82.48;99123.92;1766960;80;20965;-73
2022/02/05 08:30:00;;;;;;;32.85;14.83;;;;;;;-2.38;82.63;99119.13;1767033;80;20929;-73
2022/02/05 08:32:26;;;;;;;31.65;14.65;;;;;;;-2.35;82.88;99117.30;1763386;81;22015;-72
2022/02/05 08:34:56;;;;;;;30.25;14.33;;;;;;;-2.33;83.06;99122.45;1751672;82;20895;-73
2022/02/05 08:37:22;;;;;;;25.50;13.83;;;;;;;-2.30;83.14;99117.90;1727456;82;20865;-71
2022/02/05 08:39:49;;;;;;;27.62;17.00;;;;;;;-2.24;83.13;99125.56;1751848;82;20956;-73
2022/02/05 08:42:16;;;;;;;39.75;21.82;;;;;;;-2.21;82.94;99127.77;1752293;82;20873;-74
2022/02/05 08:44:45;;;;;;;36.00;16.23;;;;;;;-2.20;82.95;99130.22;1751816;82;21128;-72
2022/02/05 08:47:11;;;;;;;32.05;18.05;;;;;;;-2.12;82.81;99125.48;1751949;82;21414;-73
2022/02/05 08:49:38;;;;;;;29.35;15.10;;;;;;;-2.09;82.70;99129.05;1751707;82;20980;-73
2022/02/05 08:52:08;;;;;;;26.02;13.38;;;;;;;-2.03;82.73;99133.45;1726577;82;20916;-72
2022/02/05 08:54:38;;;;;;;27.58;16.67;;;;;;;-1.99;82.70;99126.51;1727261;82;21453;-71
2022/02/05 08:57:10;;;;;;;26.70;15.00;;;;;;;-1.94;82.72;99123.06;1752355;82;21115;-73
2022/02/05 09:00:13;;;;;;;33.05;16.73;;;;;;;-1.86;82.74;99119.94;1752221;82;20983;-71
2022/02/05 09:02:24;;;;;;;27.32;15.58;;;;;;;-1.83;82.56;99114.59;1751620;82;20999;-73
2022/02/05 09:05:09;;;;;;;24.95;13.62;;;;;;;-1.79;82.62;99113.56;1751838;82;20973;-73
2022/02/05 09:07:31;;;;;;;25.40;15.65;;;;;;;-1.76;82.62;99104.95;1750677;82;20920;-74
2022/02/05 09:15:14;;;;;;;27.05;14.93;;;;;;;-1.62;82.51;99106.78;1751828;82;20912;-73
2022/02/05 09:17:44;;;;;;;24.90;14.40;;;;;;;-1.59;82.42;99091.41;1752304;82;20937;-72
2022/02/05 09:20:11;;;;;;;27.22;14.47;;;;;;;-1.54;82.48;99086.08;1752195;82;20964;-72
2022/02/05 09:22:39;;;;;;;27.65;15.20;;;;;;;-1.49;82.39;99084.80;1751948;82;21493;-72
2022/02/05 09:25:07;;;;;;;23.32;13.78;;;;;;;-1.49;82.26;99078.04;1751895;81;21127;-70
2022/02/05 09:27:39;;;;;;;23.65;13.20;;;;;;;-1.47;82.29;99077.23;1752200;82;20856;-73
2022/02/05 09:30:06;;;;;;;28.80;14.55;;;;;;;-1.42;82.27;99072.97;1751298;82;21449;-72
2022/02/05 09:32:32;;;;;;;28.77;15.30;;;;;;;-1.41;82.19;99066.48;1728243;80;21055;-71
2022/02/05 09:35:02;;;;;;;28.60;16.73;;;;;;;-1.37;82.19;99073.86;1766906;81;22026;-72
2022/02/05 09:37:31;;;;;;;25.52;13.90;;;;;;;-1.36;82.13;99056.56;1767045;80;21109;-73
2022/02/05 09:40:00;;;;;;;32.40;15.53;;;;;;;-1.33;82.12;99050.38;1767073;80;20941;-73
2022/02/05 09:42:27;;;;;;;28.20;14.25;;;;;;;-1.33;82.03;99061.98;1767078;80;20969;-73
2022/02/05 09:45:02;;;;;;;27.27;15.32;;;;;;;-1.35;82.02;99064.94;1766899;81;21062;-72
2022/02/05 09:47:30;;;;;;;24.23;14.73;;;;;;;-1.34;82.23;99061.71;1762426;81;21461;-70
2022/02/05 09:49:59;;;;;;;31.68;16.05;;;;;;;-1.32;82.28;99059.58;1766891;81;20882;-73
2022/02/05 09:52:28;;;;;;;29.67;14.68;;;;;;;-1.28;82.32;99046.38;1722099;81;21299;-72
2022/02/05 09:54:57;;;;;;;28.50;14.65;;;;;;;-1.25;82.32;99053.45;1767032;80;20948;-73
2022/02/05 09:57:25;;;;;;;33.98;16.00;;;;;;;-1.20;82.31;99055.92;1767308;80;20894;-73
2022/02/05 09:59:58;;;;;;;28.02;15.13;;;;;;;-1.18;82.24;99052.43;1767234;81;21629;-71
2022/02/05 10:02:38;;;;;;;26.12;15.78;;;;;;;-1.16;82.17;99054.36;1767037;80;20894;-73
2022/02/05 10:05:20;;;;;;;28.27;15.28;;;;;;;-1.14;82.75;99048.96;1767372;80;21513;-73
2022/02/05 10:08:08;;;;;;;35.30;15.68;;;;;;;-1.15;82.46;99046.52;1722909;81;21494;-73
2022/02/05 10:10:42;;;;;;;29.87;16.40;;;;;;;-1.16;82.31;99037.57;1767186;81;21450;-72
2022/02/05 10:13:18;;;;;;;30.05;16.37;;;;;;;-1.17;82.37;99037.30;1766989;80;21980;-72
2022/02/05 10:15:55;;;;;;;33.65;15.95;;;;;;;-1.18;82.40;99034.86;1766881;80;20926;-73
2022/02/05 10:18:30;;;;;;;30.68;16.40;;;;;;;-1.16;82.54;99032.72;1767153;81;21037;-73
2022/02/05 10:21:00;;;;;;;32.60;17.17;;;;;;;-1.14;86.48;99035.44;1767058;80;20969;-72
2022/02/05 10:23:30;;;;;;;38.02;17.90;;;;;;;-1.13;88.65;99041.67;1767308;80;21534;-72
2022/02/05 10:25:57;;;;;;;29.07;16.67;;;;;;;-1.12;87.99;99029.25;1766913;80;21513;-72
2022/02/05 10:28:26;;;;;;;31.00;17.48;;;;;;;-1.11;87.46;99028.16;1766943;81;20873;-73
2022/02/05 10:30:55;;;;;;;32.75;16.97;;;;;;;-1.14;87.28;99020.56;1766900;81;20874;-73
2022/02/05 10:33:33;;;;;;;32.73;19.50;;;;;;;-1.12;87.05;99021.66;1762405;80;20916;-73
2022/02/05 10:36:23;;;;;;;32.35;19.02;;;;;;;-1.08;86.36;99025.50;1751835;82;20967;-74
2022/02/05 10:44:02;;;;;;;34.78;18.42;;;;;;;-1.02;84.96;99018.23;1692350;84;20945;-73
2022/02/05 10:46:42;;;;;;;41.73;20.12;;;;;;;-1.03;84.87;99003.91;1750622;82;21007;-72
2022/02/05 10:49:49;;;;;;;40.05;20.02;;;;;;;-1.04;85.30;98991.45;1752069;82;20884;-72
2022/02/05 10:52:26;;;;;;;37.78;20.15;;;;;;;-1.04;85.82;98988.74;1751100;82;21572;-72
2022/02/05 10:55:13;;;;;;;39.83;19.87;;;;;;;-1.03;85.94;98986.33;1727015;82;20983;-73
2022/02/05 10:57:29;;;;;;;46.48;21.82;;;;;;;-0.99;85.99;98983.38;1748483;82;20949;-74
2022/02/05 11:05:43;;;;;;;37.65;20.17;;;;;;;-0.91;86.02;98982.64;1752500;82;21522;-74
2022/02/05 11:08:10;;;;;;;46.77;20.80;;;;;;;-0.88;85.97;98974.01;1726505;82;20924;-72
2022/02/05 11:19:02;;;;;;;43.52;21.33;;;;;;;-0.69;85.91;98965.50;1752214;82;21128;-73
2022/02/05 11:21:30;;;;;;;36.45;19.12;;;;;;;-0.66;85.78;98954.98;1751916;82;20948;-74
2022/02/05 11:24:06;;;;;;;40.83;21.07;;;;;;;-0.62;85.86;98957.46;1752230;82;21032;-73
2022/02/05 11:26:37;;;;;;;37.98;20.23;;;;;;;-0.59;85.79;98953.41;1752004;82;20929;-74
2022/02/05 11:29:05;;;;;;;41.80;21.82;;;;;;;-0.57;85.92;98949.91;1751842;82;20953;-73
2022/02/05 11:31:41;;;;;;;36.35;20.57;;;;;;;-0.56;85.83;98950.73;1726825;82;21613;-73
2022/02/05 11:34:29;;;;;;;40.33;21.87;;;;;;;-0.54;85.80;98943.97;1751990;80;21457;-73
2022/02/05 11:37:04;;;;;;;40.73;22.58;;;;;;;-0.51;85.80;98943.44;1751017;82;20896;-73
2022/02/05 11:39:50;;;;;;;44.10;22.37;;;;;;;-0.47;85.67;98943.73;1752151;82;21574;-69
2022/02/05 11:42:36;;;;;;;37.48;20.77;;;;;;;-0.44;85.54;98933.73;1751909;81;21344;-72
2022/02/05 11:45:28;;;;;;;41.75;22.35;;;;;;;-0.43;85.46;98918.31;1751777;82;21826;-73
2022/02/05 11:47:57;;;;;;;40.10;22.67;;;;;;;-0.42;85.41;98922.64;1751999;82;21468;-74
2022/02/05 11:50:25;;;;;;;36.20;20.02;;;;;;;-0.41;85.26;98927.00;1752124;81;20908;-73
2022/02/05 11:52:54;;;;;;;36.65;21.65;;;;;;;-0.44;85.21;98918.02;1751779;82;21004;-73
2022/02/05 11:55:32;;;;;;;38.05;20.70;;;;;;;-0.47;85.22;98919.37;1751868;82;20877;-75
2022/02/05 11:58:05;;;;;;;42.90;23.30;;;;;;;-0.46;85.22;98920.99;1751969;82;21110;-72
2022/02/05 12:00:41;;;;;;;35.95;19.87;;;;;;;-0.44;85.31;98903.13;1751907;82;20968;-73
2022/02/05 12:03:33;;;;;;;37.35;19.55;;;;;;;-0.42;85.32;98906.40;1750653;82;21006;-73
2022/02/05 12:06:10;;;;;;;37.33;19.50;;;;;;;-0.43;85.27;98893.42;1751630;82;20976;-72
2022/02/05 12:08:42;;;;;;;37.35;19.55;;;;;;;-0.41;85.19;98895.30;1752131;82;21023;-70
2022/02/05 12:11:29;;;;;;;39.85;21.45;;;;;;;-0.38;85.00;98883.16;1751939;82;21083;-73
2022/02/05 12:14:15;;;;;;;43.15;19.62;;;;;;;-0.37;85.04;98880.18;1752012;82;20869;-73
2022/02/05 12:17:15;;;;;;;35.17;20.08;;;;;;;-0.32;85.03;98875.84;1751701;82;20980;-72
2022/02/05 12:20:02;;;;;;;36.53;19.77;;;;;;;-0.29;84.97;98877.50;1726834;82;21032;-70
2022/02/05 12:26:00;;;;;;;38.48;19.67;;;;;;;-0.18;84.50;98891.09;1709312;82;21087;-71
2022/02/05 12:28:32;;;;;;;30.92;18.75;;;;;;;-0.20;84.10;98887.30;1751842;81;20984;-75
2022/02/05 12:31:01;;;;;;;41.45;20.35;;;;;;;-0.20;83.86;98879.70;1752308;82;21492;-72
2022/02/05 12:34:04;;;;;;;32.98;19.30;;;;;;;-0.21;83.91;98869.95;1752072;80;20951;-69
2022/02/05 12:36:41;;;;;;;41.37;20.95;;;;;;;-0.20;83.81;98875.63;1751941;81;20952;-73
2022/02/05 12:39:26;;;;;;;38.85;22.42;;;;;;;-0.20;83.73;98881.05;1752303;82;21723;-71
2022/02/05 12:42:07;;;;;;;46.13;22.45;;;;;;;-0.21;83.48;98874.02;1751821;82;20861;-72
2022/02/05 12:44:38;;;;;;;;;;;;;;;-0.23;83.34;98871.58;1754931;80;20943;-74
2022/02/05 12:47:15;;;;;;;46.45;22.93;;;;;;;-0.28;83.31;98875.08;1752278;81;22183;-74
2022/02/05 12:49:51;;;;;;;36.45;20.72;;;;;;;-0.30;83.44;98869.64;1729280;82;20916;-73
2022/02/05 12:52:14;;;;;;;46.48;21.30;;;;;;;-0.31;83.60;98870.20;1750061;82;21412;-73
2022/02/05 12:54:46;;;;;;;39.85;22.17;;;;;;;-0.31;83.68;98870.73;1751702;82;20904;-72
2022/02/05 12:57:17;;;;;;;89.72;48.73;;;;;;;-0.30;83.70;98856.09;1751893;82;20916;-73
2022/02/05 12:59:46;;;;;;;63.43;31.57;;;;;;;-0.28;83.68;98864.78;1752569;81;20951;-73
2022/02/05 13:02:15;;;;;;;52.08;27.52;;;;;;;-0.27;83.70;98856.39;1751904;82;21065;-73
2022/02/05 13:04:53;;;;;;;50.40;24.55;;;;;;;-0.25;83.81;98856.95;1751811;82;21974;-73
2022/02/05 13:07:25;;;;;;;40.17;21.70;;;;;;;-0.22;83.65;98846.11;1751794;81;20908;-74
2022/02/05 13:10:01;;;;;;;42.35;20.92;;;;;;;-0.20;83.57;98845.84;1751921;82;20964;-73
2022/02/05 13:12:41;;;;;;;38.20;20.45;;;;;;;-0.16;83.62;98844.25;1751879;82;21390;-75
2022/02/05 13:15:27;;;;;;;42.95;21.30;;;;;;;-0.13;83.57;98841.83;1751744;82;21496;-72
2022/02/05 13:34:27;;;;;;;38.88;21.50;;;;;;;-0.09;82.92;98839.94;1751746;80;20912;-73
2022/02/05 13:42:20;;;;;;;43.95;23.10;;;;;;;-0.14;82.93;98848.30;1751832;82;20986;-72
2022/02/05 13:45:18;;;;;;;44.95;24.65;;;;;;;-0.15;82.92;98844.52;1751877;82;21148;-74
2022/02/05 13:47:38;;;;;;;48.08;28.67;;;;;;;-0.14;82.92;98844.25;1747411;82;20928;-73
2022/02/05 13:50:24;;;;;;;34.15;19.17;;;;;;;-0.19;83.20;98846.14;1748126;82;20931;-71
2022/02/05 13:52:57;;;;;;;53.17;27.58;;;;;;;-0.21;83.35;98846.94;1751694;81;20916;-71
2022/02/05 13:55:37;;;;;;;52.53;27.15;;;;;;;-0.23;83.51;98851.80;1751956;81;21362;-73
2022/02/05 13:58:15;;;;;;;47.55;25.17;;;;;;;-0.25;83.65;98843.41;1751641;82;21230;-74
2022/02/05 14:00:51;;;;;;;41.10;22.37;;;;;;;-0.25;83.70;98834.46;1751679;81;20928;-73
2022/02/05 14:03:36;;;;;;;43.33;21.42;;;;;;;-0.26;83.81;98834.98;1752125;81;20935;-72
2022/02/05 14:06:12;;;;;;;48.23;25.95;;;;;;;-0.26;83.93;98833.64;1751721;82;20972;-70
2022/02/05 14:08:45;;;;;;;69.15;34.95;;;;;;;-0.25;84.02;98829.87;1752080;82;20936;-72
2022/02/05 14:11:15;;;;;;;87.72;43.02;;;;;;;-0.22;84.13;98837.19;1752272;82;21162;-73
2022/02/05 14:13:45;;;;;;;47.25;23.38;;;;;;;-0.22;84.25;98839.91;1751647;82;20883;-71
2022/02/05 14:16:11;;;;;;;43.23;22.82;;;;;;;-0.22;84.35;98831.78;1727007;82;21744;-71
2022/02/05 14:18:58;;;;;;;60.40;26.10;;;;;;;-0.21;84.53;98830.69;1751774;82;20972;-72
2022/02/05 14:21:43;;;;;;;50.60;23.70;;;;;;;-0.24;84.68;98833.40;1750636;82;21024;-72
2022/02/05 14:24:25;;;;;;;54.18;27.77;;;;;;;-0.26;84.89;98836.91;1751856;82;21158;-73
2022/02/05 14:27:09;;;;;;;48.05;24.15;;;;;;;-0.29;85.10;98838.23;1752090;82;20833;-71
2022/02/05 14:29:55;;;;;;;40.07;21.43;;;;;;;-0.31;85.30;98832.29;1752325;82;20900;-74
2022/02/05 14:32:21;;;;;;;43.90;22.85;;;;;;;-0.31;85.47;98832.29;1748850;82;20955;-72
2022/02/05 14:35:00;;;;;;;53.08;27.60;;;;;;;-0.33;85.66;98841.20;1750866;80;20941;-73
2022/02/05 14:42:42;;;;;;;56.48;27.30;;;;;;;-0.37;86.29;98848.22;1751676;82;20968;-73
2022/02/05 14:45:10;;;;;;;48.17;24.10;;;;;;;-0.39;86.43;98851.19;1751971;82;20960;-72
2022/02/05 14:47:39;;;;;;;48.38;24.23;;;;;;;-0.39;86.59;98854.43;1751656;81;20908;-73
2022/02/05 14:50:11;;;;;;;56.73;26.62;;;;;;;-0.39;86.72;98851.72;1751970;82;21056;-69